トロント/ピアソン の空港の天気 - METARとTAF

トロント・ピアソン国際空港 ( CYYZ / YYZ ) - カナダ オンタリオ州トロント
飛行場実況気象(Metar)
観測時間04/27 00:00 EDT (04/27 04:00 UTC)
風向・風速北北東 3m/s
視程10km以上
天気現象
なし
気温8℃
湿度57%
気圧1010.7hPa
METARCYYZ 270400Z 02005KT 15SM SKC 08/M00 A2983 RMK SLP107
過去の天気等 Google飛行場航空写真 Wunderground天気予報

過去48時間のMETAR

飛行場予報(TAF)
発表時間: 4/26 22:38 EDT (4/27 02:38 UTC)
予報対象時間: 26日23時 EDT ~ 28日2時 EDT
風向・風速不定 2m/s
視程10km以上
少しの雲 雲底高度 7,320m
27日11時 EDT から
風向・風速南東 4m/s
視程10km以上
全天の4割程度の雲 雲底高度 5,490m
27日19時 EDT から
風向・風速東 3m/s
視程10km以上
少しの雲 雲底高度 1,220m
全天の8割程度の雲 雲底高度 4,270m
27日21時 EDT から
風向・風速北北東 3m/s
視程10km以上
天気現象弱いしゅう雨
全天の8割程度の雲 雲底高度 760m
全天を覆う雲 雲底高度 1,830m
27日23時 EDT から
風向・風速北 6m/s
視程6,440m
天気現象弱いしゅう雨 もや
全天の4割程度の雲 雲底高度 270m
全天を覆う雲 雲底高度 610m
TAF CYYZ 270238Z 2703/2806 VRB03KT P6SM FEW240
FM271500 13008KT P6SM SCT180
FM272300 10005KT P6SM FEW040 BKN140
FM280100 02005KT P6SM -SHRA BKN025 OVC060
FM280300 35012KT 4SM -SHRA BR SCT009 OVC020 RMK NXT FCST BY 270600Z